createdAt,value
2022-09-16T00:00:20.584Z,20.80
2022-09-16T00:01:19.950Z,20.91
2022-09-16T00:02:16.679Z,20.63
2022-09-16T00:03:13.930Z,20.90
2022-09-16T00:04:10.551Z,21.00
2022-09-16T00:05:07.706Z,20.96
2022-09-16T00:06:04.426Z,20.60
2022-09-16T00:07:00.996Z,21.10
2022-09-16T00:07:57.662Z,21.15
2022-09-16T00:09:01.029Z,21.13
2022-09-16T00:09:57.632Z,21.15
2022-09-16T00:10:54.248Z,21.12
2022-09-16T00:11:50.802Z,20.98
2022-09-16T00:12:47.839Z,21.17
2022-09-16T00:13:45.795Z,21.16
2022-09-16T00:14:42.509Z,21.08
2022-09-16T00:16:40.021Z,21.02
2022-09-16T00:17:37.974Z,21.20
2022-09-16T00:18:34.856Z,21.22
2022-09-16T00:19:31.795Z,21.37
2022-09-16T00:20:28.895Z,21.45
2022-09-16T00:21:26.073Z,21.29
2022-09-16T00:22:22.686Z,21.27
2022-09-16T00:23:19.963Z,21.36
2022-09-16T00:24:16.787Z,21.28
2022-09-16T00:25:13.411Z,21.01
2022-09-16T00:26:10.205Z,20.92
2022-09-16T00:27:06.753Z,21.13
2022-09-16T00:28:03.415Z,21.03
2022-09-16T00:29:00.012Z,20.99
2022-09-16T00:29:56.607Z,20.73
2022-09-16T00:30:53.556Z,20.63
2022-09-16T00:31:51.154Z,20.28
2022-09-16T00:32:47.791Z,20.36
2022-09-16T00:33:44.449Z,20.07
2022-09-16T00:34:41.064Z,20.03
2022-09-16T00:35:37.671Z,20.39
2022-09-16T00:36:34.233Z,20.48
2022-09-16T00:37:33.372Z,20.39
2022-09-16T00:38:29.983Z,20.23
2022-09-16T00:39:26.546Z,19.98
2022-09-16T00:40:23.432Z,19.83
2022-09-16T00:41:23.099Z,20.02
2022-09-16T00:42:21.017Z,20.29
2022-09-16T00:43:19.861Z,20.78
2022-09-16T00:44:55.525Z,20.97
2022-09-16T00:46:02.269Z,21.07
2022-09-16T00:46:59.305Z,21.14
2022-09-16T00:48:03.166Z,21.15
2022-09-16T00:49:10.807Z,20.87
2022-09-16T00:50:38.534Z,21.18
2022-09-16T00:51:35.450Z,21.17
2022-09-16T00:52:33.123Z,21.15
2022-09-16T00:53:40.704Z,21.10
2022-09-16T00:54:40.952Z,21.13
2022-09-16T00:55:38.370Z,21.40
2022-09-16T00:56:38.798Z,21.26
2022-09-16T00:57:36.663Z,21.20
2022-09-16T00:58:39.196Z,21.20
2022-09-16T00:59:37.194Z,21.07
2022-09-16T01:00:34.216Z,21.19
2022-09-16T01:01:32.184Z,21.03
2022-09-16T01:02:28.839Z,21.13
2022-09-16T01:03:27.680Z,21.08
2022-09-16T01:04:30.013Z,20.99
2022-09-16T01:05:27.078Z,20.51
2022-09-16T01:06:26.117Z,20.84
2022-09-16T01:07:54.805Z,20.75
2022-09-16T01:08:51.611Z,20.85
2022-09-16T01:09:48.248Z,20.73
2022-09-16T01:10:44.858Z,20.73
2022-09-16T01:11:41.422Z,20.74
2022-09-16T01:12:39.975Z,20.70
2022-09-16T01:13:37.578Z,20.79
2022-09-16T01:14:52.807Z,20.69
2022-09-16T01:16:01.684Z,20.92
2022-09-16T01:17:08.094Z,20.71
2022-09-16T01:18:11.669Z,20.67
2022-09-16T01:19:52.020Z,20.38
2022-09-16T01:21:08.598Z,20.54
2022-09-16T01:22:38.944Z,21.01
2022-09-16T01:24:05.198Z,20.81
2022-09-16T01:25:18.673Z,20.72
2022-09-16T01:26:47.344Z,20.73
2022-09-16T01:28:17.504Z,20.42
2022-09-16T01:29:37.396Z,20.43
2022-09-16T01:30:41.153Z,20.39
2022-09-16T01:31:48.139Z,20.55
2022-09-16T01:33:22.127Z,20.60
2022-09-16T01:34:24.848Z,20.07
2022-09-16T01:35:35.648Z,19.89
2022-09-16T01:37:01.159Z,19.88
2022-09-16T01:38:21.744Z,19.60
2022-09-16T01:39:25.859Z,19.57
2022-09-16T01:40:28.531Z,19.92
2022-09-16T01:41:46.416Z,20.03
2022-09-16T01:43:07.419Z,20.11
2022-09-16T01:44:17.252Z,20.04
2022-09-16T01:45:35.886Z,20.18
2022-09-16T01:46:52.493Z,20.16
2022-09-16T01:48:00.128Z,20.43
2022-09-16T01:49:43.429Z,20.56
2022-09-16T01:50:47.762Z,20.29
2022-09-16T01:51:57.079Z,20.38
2022-09-16T01:53:31.147Z,20.01
2022-09-16T01:54:39.251Z,19.86
2022-09-16T01:55:46.886Z,19.77
2022-09-16T01:56:54.632Z,19.82
2022-09-16T01:58:09.362Z,19.62
2022-09-16T01:59:15.678Z,19.46
2022-09-16T02:00:14.552Z,19.41
2022-09-16T02:01:37.887Z,19.65
2022-09-16T02:02:45.183Z,20.00
2022-09-16T02:03:45.958Z,19.94
2022-09-16T02:04:52.664Z,19.89
2022-09-16T02:05:56.130Z,19.94
2022-09-16T02:06:56.651Z,20.03
2022-09-16T02:08:06.014Z,20.16
2022-09-16T02:09:10.171Z,20.07
2022-09-16T02:10:33.247Z,19.99
2022-09-16T02:11:30.722Z,19.99
2022-09-16T02:12:32.211Z,20.12
2022-09-16T02:13:39.825Z,20.25
2022-09-16T02:14:43.057Z,20.30
2022-09-16T02:15:42.260Z,20.33
2022-09-16T02:16:46.051Z,20.28
2022-09-16T02:17:48.874Z,20.31
2022-09-16T02:18:53.079Z,20.49
2022-09-16T02:20:01.805Z,20.51
2022-09-16T02:21:01.648Z,20.50
2022-09-16T02:22:02.263Z,20.29
2022-09-16T02:23:07.864Z,20.16
2022-09-16T02:24:11.852Z,20.26
2022-09-16T02:25:10.093Z,20.22
2022-09-16T02:26:11.552Z,20.08
2022-09-16T02:27:14.158Z,19.98
2022-09-16T02:28:16.185Z,20.16
2022-09-16T02:29:19.424Z,20.02
2022-09-16T02:30:19.751Z,19.80
2022-09-16T02:31:21.839Z,19.54
2022-09-16T02:32:22.319Z,19.67
2022-09-16T02:33:20.505Z,19.31
2022-09-16T02:34:23.124Z,19.63
2022-09-16T02:35:22.026Z,19.65
2022-09-16T02:36:22.341Z,19.43
2022-09-16T02:37:24.845Z,19.30
2022-09-16T02:38:24.039Z,19.75
2022-09-16T02:39:27.391Z,19.45
2022-09-16T02:40:38.057Z,19.15
2022-09-16T02:41:36.369Z,19.22
2022-09-16T02:42:34.013Z,19.18
2022-09-16T02:43:31.257Z,19.28
2022-09-16T02:44:27.896Z,19.46
2022-09-16T02:45:46.806Z,19.07
2022-09-16T02:46:54.511Z,19.43
2022-09-16T02:48:13.570Z,19.61
2022-09-16T02:49:19.180Z,19.70
2022-09-16T02:50:18.314Z,19.73
2022-09-16T02:51:42.580Z,19.84
2022-09-16T02:52:39.181Z,19.90
2022-09-16T02:53:41.421Z,19.81
2022-09-16T02:54:53.504Z,20.19
2022-09-16T02:56:31.952Z,20.12
2022-09-16T02:57:29.379Z,20.31
2022-09-16T02:58:26.123Z,20.22
2022-09-16T02:59:23.591Z,20.42
2022-09-16T03:00:20.811Z,20.42
2022-09-16T03:01:19.422Z,20.45
2022-09-16T03:02:16.102Z,20.37
2022-09-16T03:03:13.740Z,20.45
2022-09-16T03:04:13.156Z,20.37
2022-09-16T03:05:09.752Z,20.31
2022-09-16T03:06:06.274Z,20.42
2022-09-16T03:07:05.878Z,20.40
2022-09-16T03:08:04.177Z,20.40
2022-09-16T03:09:02.176Z,20.34
2022-09-16T03:09:59.054Z,20.06
2022-09-16T03:10:58.335Z,20.35
2022-09-16T03:12:09.077Z,20.08
2022-09-16T03:13:37.634Z,20.12
2022-09-16T03:14:53.171Z,20.07
2022-09-16T03:16:03.419Z,20.06
2022-09-16T03:17:18.488Z,20.15
2022-09-16T03:18:43.733Z,20.21
2022-09-16T03:20:01.982Z,20.47
2022-09-16T03:21:21.720Z,20.67
2022-09-16T03:22:37.419Z,20.50
2022-09-16T03:23:56.424Z,20.41
2022-09-16T03:25:05.225Z,20.60
2022-09-16T03:26:22.990Z,20.67
2022-09-16T03:27:31.937Z,20.30
2022-09-16T03:28:39.462Z,20.34
2022-09-16T03:29:39.812Z,20.67
2022-09-16T03:31:04.044Z,20.35
2022-09-16T03:32:10.339Z,20.33
2022-09-16T03:33:17.959Z,20.50
2022-09-16T03:34:27.470Z,20.36
2022-09-16T03:35:37.123Z,20.55
2022-09-16T03:36:40.262Z,20.62
2022-09-16T03:37:39.644Z,20.70
2022-09-16T03:38:38.988Z,20.47
2022-09-16T03:39:36.812Z,20.85
2022-09-16T03:40:34.206Z,20.72
2022-09-16T03:41:34.053Z,20.56
2022-09-16T03:42:31.247Z,20.47
2022-09-16T03:43:27.782Z,20.62
2022-09-16T03:44:31.686Z,20.43
2022-09-16T03:45:28.352Z,20.43
2022-09-16T03:46:26.590Z,20.44
2022-09-16T03:47:23.250Z,20.45
2022-09-16T03:48:19.921Z,20.47
2022-09-16T03:49:17.126Z,20.42
2022-09-16T03:50:14.504Z,20.42
2022-09-16T03:51:11.090Z,20.58
2022-09-16T03:52:08.788Z,20.50
2022-09-16T03:53:05.672Z,20.75
2022-09-16T03:54:02.380Z,20.72
2022-09-16T03:54:59.020Z,20.74
2022-09-16T03:55:55.652Z,20.57
2022-09-16T03:56:52.287Z,20.52
2022-09-16T03:57:48.927Z,20.52
2022-09-16T03:58:48.693Z,20.49
2022-09-16T03:59:45.343Z,20.37
2022-09-16T04:00:41.926Z,20.39
2022-09-16T04:01:38.536Z,20.49
2022-09-16T04:02:35.778Z,20.42
2022-09-16T04:03:33.435Z,20.52
2022-09-16T04:04:30.156Z,20.51
2022-09-16T04:05:27.547Z,20.54
2022-09-16T04:06:24.103Z,20.51
2022-09-16T04:07:20.831Z,20.47
2022-09-16T04:08:17.510Z,20.47
2022-09-16T04:09:15.554Z,20.40
2022-09-16T04:10:12.555Z,20.49
2022-09-16T04:11:09.332Z,20.35
2022-09-16T04:12:07.779Z,20.60
2022-09-16T04:13:04.639Z,20.57
2022-09-16T04:14:01.713Z,20.33
2022-09-16T04:14:59.535Z,20.45
2022-09-16T04:15:57.566Z,20.59
2022-09-16T04:16:55.206Z,20.61
2022-09-16T04:17:51.911Z,20.67
2022-09-16T04:18:49.085Z,20.62
2022-09-16T04:19:45.697Z,20.58
2022-09-16T04:20:42.325Z,20.57
2022-09-16T04:21:39.943Z,20.57
2022-09-16T04:22:36.573Z,20.59
2022-09-16T04:23:33.189Z,20.46
2022-09-16T04:24:29.816Z,20.41
2022-09-16T04:25:26.415Z,20.23
2022-09-16T04:26:22.996Z,20.29
2022-09-16T04:27:19.546Z,20.33
2022-09-16T04:28:16.134Z,20.44
2022-09-16T04:29:12.830Z,20.51
2022-09-16T04:30:10.297Z,20.51
2022-09-16T04:31:11.076Z,20.46
2022-09-16T04:32:07.705Z,20.35
2022-09-16T04:33:04.289Z,20.41
2022-09-16T04:34:05.246Z,20.48
2022-09-16T04:35:01.831Z,20.43
2022-09-16T04:36:06.666Z,20.53
2022-09-16T04:37:04.290Z,20.40
2022-09-16T04:38:00.858Z,20.32
2022-09-16T04:38:57.439Z,20.40
2022-09-16T04:39:54.056Z,20.55
2022-09-16T04:40:50.685Z,20.56
2022-09-16T04:41:47.286Z,20.46
2022-09-16T04:42:51.117Z,20.48
2022-09-16T04:43:58.390Z,20.49
2022-09-16T04:44:55.088Z,20.47
2022-09-16T04:45:51.663Z,20.45
2022-09-16T04:46:48.324Z,20.37
2022-09-16T04:47:44.970Z,20.40
2022-09-16T04:48:41.597Z,20.41
2022-09-16T04:49:38.184Z,20.44
2022-09-16T04:50:34.841Z,20.56
2022-09-16T04:51:32.329Z,20.51
2022-09-16T04:52:30.836Z,20.48
2022-09-16T04:53:27.713Z,20.48
2022-09-16T04:54:24.369Z,20.54
2022-09-16T04:55:24.143Z,20.43
2022-09-16T04:56:26.090Z,20.47
2022-09-16T04:57:22.652Z,20.47
2022-09-16T04:58:19.244Z,20.44
2022-09-16T04:59:15.874Z,20.34
2022-09-16T05:00:13.021Z,20.37
2022-09-16T05:01:12.955Z,20.46
2022-09-16T05:02:09.901Z,20.66
2022-09-16T05:03:07.348Z,20.64
2022-09-16T05:04:06.192Z,20.56
2022-09-16T05:05:02.863Z,20.56
2022-09-16T05:06:08.020Z,20.71
2022-09-16T05:07:04.750Z,20.71
2022-09-16T05:08:01.443Z,20.87
2022-09-16T05:08:59.225Z,21.00
2022-09-16T05:09:56.052Z,20.88
2022-09-16T05:10:52.735Z,20.94
2022-09-16T05:11:49.752Z,20.54
2022-09-16T05:12:51.579Z,20.63
2022-09-16T05:13:48.729Z,20.69
2022-09-16T05:14:45.418Z,20.66
2022-09-16T05:15:42.120Z,20.71
2022-09-16T05:16:38.831Z,20.78
2022-09-16T05:17:51.673Z,20.86
2022-09-16T05:18:51.122Z,20.74
2022-09-16T05:19:47.734Z,20.80
2022-09-16T05:20:44.292Z,20.82
2022-09-16T05:21:41.696Z,20.97
2022-09-16T05:22:39.193Z,20.78
2022-09-16T05:23:36.427Z,20.91
2022-09-16T05:24:36.648Z,20.97
2022-09-16T05:25:33.548Z,20.95
2022-09-16T05:26:32.888Z,20.98
2022-09-16T05:27:32.715Z,20.91
2022-09-16T05:28:29.372Z,21.00
2022-09-16T05:29:25.969Z,21.12
2022-09-16T05:30:25.924Z,21.13
2022-09-16T05:31:26.657Z,21.22
2022-09-16T05:32:23.370Z,21.29
2022-09-16T05:33:20.187Z,21.21
2022-09-16T05:34:19.355Z,21.12
2022-09-16T05:35:15.929Z,20.92
2022-09-16T05:36:17.831Z,21.03
2022-09-16T05:37:14.558Z,21.00
2022-09-16T05:38:11.475Z,21.03
2022-09-16T05:39:25.059Z,21.02
2022-09-16T05:40:23.171Z,21.01
2022-09-16T05:41:20.010Z,20.91
2022-09-16T05:42:16.587Z,21.16
2022-09-16T05:43:13.153Z,21.08
2022-09-16T05:44:10.012Z,20.97
2022-09-16T05:45:07.398Z,20.96
2022-09-16T05:46:05.996Z,20.98
2022-09-16T05:47:02.973Z,21.00
2022-09-16T05:47:59.610Z,21.12
2022-09-16T05:48:56.841Z,20.69
2022-09-16T05:49:54.914Z,20.87
2022-09-16T05:51:03.313Z,20.87
2022-09-16T05:52:00.026Z,21.07
2022-09-16T05:52:56.682Z,21.04
2022-09-16T05:53:54.710Z,21.19
2022-09-16T05:54:51.295Z,21.18
2022-09-16T05:55:56.029Z,21.15
2022-09-16T05:56:53.073Z,21.22
2022-09-16T05:57:49.641Z,21.29
2022-09-16T05:58:47.027Z,21.31
2022-09-16T05:59:43.637Z,21.32
2022-09-16T06:00:40.198Z,21.31
2022-09-16T06:01:37.850Z,21.39
2022-09-16T06:02:34.661Z,21.48
2022-09-16T06:03:32.865Z,21.46
2022-09-16T06:04:29.407Z,21.58
2022-09-16T06:05:26.006Z,21.63
2022-09-16T06:06:28.418Z,21.71
2022-09-16T06:07:25.031Z,21.64
2022-09-16T06:08:21.601Z,21.66
2022-09-16T06:09:21.441Z,21.79
2022-09-16T06:10:18.653Z,21.84
2022-09-16T06:11:15.767Z,21.76
2022-09-16T06:12:12.340Z,21.92
2022-09-16T06:13:09.146Z,21.86
2022-09-16T06:14:06.201Z,22.03
2022-09-16T06:15:02.804Z,22.25
2022-09-16T06:15:59.545Z,22.35
2022-09-16T06:16:56.830Z,22.18
2022-09-16T06:17:53.460Z,22.30
2022-09-16T06:18:50.103Z,22.52
2022-09-16T06:19:46.728Z,22.20
2022-09-16T06:20:43.282Z,22.37
2022-09-16T06:21:41.034Z,22.46
2022-09-16T06:22:37.597Z,22.47
2022-09-16T06:23:35.171Z,22.60
2022-09-16T06:24:31.994Z,22.91
2022-09-16T06:25:28.607Z,22.80
2022-09-16T06:26:26.864Z,22.83
2022-09-16T06:27:23.522Z,22.58
2022-09-16T06:28:20.257Z,22.65
2022-09-16T06:29:17.677Z,22.90
2022-09-16T06:30:14.346Z,23.01
2022-09-16T06:31:20.158Z,23.03
2022-09-16T06:32:16.987Z,23.13
2022-09-16T06:33:13.724Z,23.04
2022-09-16T06:34:16.440Z,23.07
2022-09-16T06:35:13.064Z,23.20
2022-09-16T06:36:12.557Z,23.10
2022-09-16T06:37:12.684Z,23.14
2022-09-16T06:38:09.268Z,22.86
2022-09-16T06:39:06.888Z,22.91
2022-09-16T06:40:03.868Z,23.26
2022-09-16T06:41:01.900Z,23.12
2022-09-16T06:41:58.475Z,23.45
2022-09-16T06:43:00.008Z,23.01
2022-09-16T06:43:57.312Z,23.04
2022-09-16T06:44:54.175Z,23.26
2022-09-16T06:45:50.849Z,23.28
2022-09-16T06:46:47.734Z,23.37
2022-09-16T06:47:44.274Z,23.01
2022-09-16T06:48:41.275Z,22.99
2022-09-16T06:49:37.912Z,23.45
2022-09-16T06:50:34.482Z,23.60
2022-09-16T06:51:31.655Z,23.55
2022-09-16T06:52:28.401Z,23.72
2022-09-16T06:53:25.088Z,23.60
2022-09-16T06:54:21.691Z,23.46
2022-09-16T06:55:18.357Z,23.43
2022-09-16T06:56:18.092Z,23.32
2022-09-16T06:57:14.646Z,23.49
2022-09-16T06:58:11.215Z,23.43
2022-09-16T06:59:08.613Z,23.88
2022-09-16T07:00:05.874Z,24.17
2022-09-16T07:01:10.187Z,24.05
2022-09-16T07:02:06.868Z,23.76
2022-09-16T07:03:03.933Z,23.96
2022-09-16T07:04:05.476Z,24.24
2022-09-16T07:05:02.739Z,24.00
2022-09-16T07:06:04.579Z,24.31
2022-09-16T07:07:10.056Z,23.87
2022-09-16T07:08:07.533Z,24.06
2022-09-16T07:09:04.209Z,23.54
2022-09-16T07:10:00.759Z,24.15
2022-09-16T07:11:10.672Z,24.12
2022-09-16T07:12:08.032Z,24.39
2022-09-16T07:13:06.061Z,24.55
2022-09-16T07:14:02.688Z,24.06
2022-09-16T07:14:59.271Z,24.39
2022-09-16T07:16:15.957Z,24.69
2022-09-16T07:17:12.708Z,24.82
2022-09-16T07:18:09.342Z,24.87
2022-09-16T07:19:06.058Z,25.00
2022-09-16T07:20:03.044Z,24.61
2022-09-16T07:21:11.641Z,24.86
2022-09-16T07:22:08.491Z,24.95
2022-09-16T07:23:05.087Z,24.89
2022-09-16T07:24:03.352Z,24.82
2022-09-16T07:24:59.989Z,24.84
2022-09-16T07:26:04.667Z,24.67
2022-09-16T07:27:01.265Z,24.60
2022-09-16T07:27:57.896Z,24.83
2022-09-16T07:28:55.689Z,24.81
2022-09-16T07:29:53.982Z,24.89
2022-09-16T07:30:50.797Z,24.88
2022-09-16T07:31:48.179Z,24.95
2022-09-16T07:32:45.017Z,25.07
2022-09-16T07:33:44.397Z,25.08
2022-09-16T07:34:41.219Z,24.94
2022-09-16T07:35:37.956Z,25.15
2022-09-16T07:36:46.171Z,25.54
2022-09-16T07:37:42.942Z,24.88
2022-09-16T07:38:39.554Z,24.97
2022-09-16T07:39:36.121Z,24.93
2022-09-16T07:40:34.255Z,25.19
2022-09-16T07:41:34.298Z,25.17
2022-09-16T07:42:30.949Z,25.37
2022-09-16T07:43:27.873Z,25.35
2022-09-16T07:44:25.782Z,25.14
2022-09-16T07:45:22.357Z,25.45
2022-09-16T07:46:20.015Z,25.35
2022-09-16T07:47:21.416Z,25.18
2022-09-16T07:48:18.753Z,25.64
2022-09-16T07:49:15.475Z,25.38
2022-09-16T07:50:12.039Z,25.48
2022-09-16T07:51:11.338Z,25.81
2022-09-16T07:52:07.902Z,25.69
2022-09-16T07:53:04.615Z,25.89
2022-09-16T07:54:05.342Z,26.07
2022-09-16T07:55:01.890Z,26.15
2022-09-16T07:56:06.619Z,25.82
2022-09-16T07:57:03.194Z,25.77
2022-09-16T07:57:59.891Z,26.04
2022-09-16T07:58:57.639Z,26.10
2022-09-16T07:59:54.636Z,25.99
2022-09-16T08:00:51.213Z,26.16
2022-09-16T08:01:50.964Z,26.42
2022-09-16T08:02:47.824Z,26.65
2022-09-16T08:03:46.026Z,26.79
2022-09-16T08:04:43.484Z,26.85
2022-09-16T08:05:40.242Z,26.55
2022-09-16T08:06:39.396Z,26.87
2022-09-16T08:07:36.601Z,26.97
2022-09-16T08:08:33.946Z,26.67
2022-09-16T08:09:41.314Z,26.36
2022-09-16T08:10:43.952Z,26.14
2022-09-16T08:11:40.615Z,26.35
2022-09-16T08:12:37.307Z,26.68
2022-09-16T08:13:35.825Z,26.14
2022-09-16T08:14:33.349Z,26.68
2022-09-16T08:15:30.291Z,26.60
2022-09-16T08:16:27.977Z,26.78
2022-09-16T08:17:24.957Z,27.05
2022-09-16T08:18:22.119Z,26.30
2022-09-16T08:19:20.476Z,26.42
2022-09-16T08:20:17.201Z,26.53
2022-09-16T08:21:22.050Z,26.69
2022-09-16T08:22:18.654Z,26.79
2022-09-16T08:23:15.215Z,27.15
2022-09-16T08:24:11.843Z,27.40
2022-09-16T08:25:08.482Z,27.15
2022-09-16T08:26:06.335Z,27.06
2022-09-16T08:27:02.997Z,27.17
2022-09-16T08:27:59.536Z,27.20
2022-09-16T08:29:11.887Z,27.19
2022-09-16T08:30:10.097Z,27.25
2022-09-16T08:31:06.680Z,26.80
2022-09-16T08:32:03.392Z,26.76
2022-09-16T08:33:00.365Z,26.52
2022-09-16T08:33:57.228Z,26.56
2022-09-16T08:34:53.998Z,26.65
2022-09-16T08:36:02.524Z,26.33
2022-09-16T08:36:59.128Z,26.35
2022-09-16T08:37:56.842Z,26.20
2022-09-16T08:38:56.125Z,26.18
2022-09-16T08:39:53.008Z,26.33
2022-09-16T08:40:49.873Z,26.33
2022-09-16T08:42:09.208Z,26.38
2022-09-16T08:43:24.639Z,26.03
2022-09-16T08:44:54.222Z,26.16
2022-09-16T08:46:10.210Z,26.61
2022-09-16T08:47:21.981Z,26.43
2022-09-16T08:48:31.973Z,26.45
2022-09-16T08:49:40.013Z,26.55
2022-09-16T08:50:43.063Z,26.59
2022-09-16T08:51:39.934Z,26.64
2022-09-16T08:52:38.863Z,26.56
2022-09-16T08:53:59.194Z,26.32
2022-09-16T08:55:00.843Z,26.33
2022-09-16T08:55:58.656Z,26.30
2022-09-16T08:57:00.975Z,25.85
2022-09-16T08:57:57.469Z,26.10
2022-09-16T08:58:57.660Z,26.00
2022-09-16T08:59:59.613Z,26.04
2022-09-16T09:01:05.106Z,26.15
2022-09-16T09:02:36.147Z,26.05
2022-09-16T09:03:46.108Z,26.41
2022-09-16T09:04:43.667Z,26.18
2022-09-16T09:06:02.061Z,26.04
2022-09-16T09:07:17.873Z,26.21
2022-09-16T09:08:33.234Z,25.99
2022-09-16T09:09:45.379Z,26.22
2022-09-16T09:10:59.665Z,26.02
2022-09-16T09:12:02.040Z,26.33
2022-09-16T09:13:11.390Z,26.43
2022-09-16T09:14:36.705Z,26.32
2022-09-16T09:16:08.589Z,26.02
2022-09-16T09:17:37.154Z,26.30
2022-09-16T09:19:12.980Z,25.80
2022-09-16T09:20:21.780Z,25.63
2022-09-16T09:21:31.648Z,25.77
2022-09-16T09:22:56.480Z,25.39
2022-09-16T09:24:16.379Z,26.04
2022-09-16T09:25:34.861Z,25.68
2022-09-16T09:26:31.443Z,25.46
2022-09-16T09:27:45.126Z,25.67
2022-09-16T09:29:00.446Z,25.76
2022-09-16T09:30:19.376Z,25.04
2022-09-16T09:31:41.096Z,25.09
2022-09-16T09:33:02.081Z,25.34
2022-09-16T09:34:04.590Z,25.55
2022-09-16T09:35:47.266Z,25.63
2022-09-16T09:36:52.623Z,25.97
2022-09-16T09:38:07.098Z,25.77
2022-09-16T09:39:26.594Z,26.03
2022-09-16T09:40:49.510Z,26.45
2022-09-16T09:41:52.863Z,25.60
2022-09-16T09:42:57.512Z,25.66
2022-09-16T09:44:04.664Z,26.24
2022-09-16T09:45:19.445Z,26.46
2022-09-16T09:46:31.520Z,26.55
2022-09-16T09:47:43.007Z,25.82
2022-09-16T09:48:51.871Z,26.16
2022-09-16T09:49:56.347Z,26.14
2022-09-16T09:50:53.896Z,25.88
2022-09-16T09:52:14.467Z,25.72
2022-09-16T09:53:25.117Z,25.72
2022-09-16T09:54:30.248Z,25.80
2022-09-16T09:55:31.492Z,25.86
2022-09-16T09:56:32.849Z,25.87
2022-09-16T09:57:47.112Z,25.91
2022-09-16T09:59:19.324Z,25.80
2022-09-16T10:00:22.135Z,25.74
2022-09-16T10:01:18.833Z,25.57
2022-09-16T10:02:19.448Z,25.74
2022-09-16T10:03:18.562Z,25.67
2022-09-16T10:04:16.061Z,25.60
2022-09-16T10:05:22.120Z,25.61
2022-09-16T10:06:25.216Z,25.39
2022-09-16T10:07:24.496Z,25.15
2022-09-16T10:08:21.378Z,25.21
2022-09-16T10:09:20.731Z,25.36
2022-09-16T10:10:22.344Z,25.17
2022-09-16T10:11:22.514Z,25.12
2022-09-16T10:12:35.713Z,25.17
2022-09-16T10:13:32.357Z,25.11
2022-09-16T10:14:34.402Z,24.95
2022-09-16T10:15:31.862Z,24.67
2022-09-16T10:16:37.370Z,24.81
2022-09-16T10:17:34.322Z,24.44
2022-09-16T10:18:32.503Z,24.44
2022-09-16T10:19:31.857Z,24.05
2022-09-16T10:20:33.113Z,23.54
2022-09-16T10:21:47.689Z,23.39
2022-09-16T10:23:04.870Z,22.93
2022-09-16T10:24:01.676Z,22.85
2022-09-16T10:24:59.270Z,22.72
2022-09-16T10:26:21.612Z,22.30
2022-09-16T10:27:30.632Z,22.11
2022-09-16T10:28:27.190Z,21.97
2022-09-16T10:29:23.972Z,21.79
2022-09-16T10:31:29.141Z,21.21
2022-09-16T10:32:28.757Z,21.55
2022-09-16T10:33:28.510Z,21.43
2022-09-16T10:34:44.553Z,21.04
2022-09-16T10:35:50.960Z,21.04
2022-09-16T10:37:02.941Z,20.95
2022-09-16T10:38:03.789Z,20.61
2022-09-16T10:39:04.986Z,20.25
2022-09-16T10:40:04.880Z,19.97
2022-09-16T10:41:08.489Z,20.11
2022-09-16T10:42:06.723Z,19.68
2022-09-16T10:43:07.685Z,19.53
2022-09-16T10:44:17.457Z,19.93
2022-09-16T10:45:19.083Z,19.25
2022-09-16T10:46:17.494Z,19.42
2022-09-16T10:47:24.660Z,19.57
2022-09-16T10:48:24.635Z,19.40
2022-09-16T10:49:28.733Z,19.68
2022-09-16T10:50:26.430Z,19.49
2022-09-16T10:51:31.396Z,19.34
2022-09-16T10:52:30.574Z,18.68
2022-09-16T10:53:40.888Z,19.08
2022-09-16T10:54:40.195Z,18.82
2022-09-16T10:55:38.156Z,18.88
2022-09-16T10:56:55.344Z,19.32
2022-09-16T10:57:52.779Z,18.87
2022-09-16T10:58:49.602Z,18.92
2022-09-16T11:00:11.743Z,18.98
2022-09-16T11:01:34.180Z,18.88
2022-09-16T11:02:59.121Z,19.01
2022-09-16T11:04:08.136Z,18.83
2022-09-16T11:05:29.766Z,18.23
2022-09-16T11:06:40.572Z,18.38
2022-09-16T11:07:48.870Z,18.88
2022-09-16T11:08:55.957Z,18.96
2022-09-16T11:10:16.194Z,18.60
2022-09-16T11:13:06.481Z,18.85
2022-09-16T11:14:22.815Z,18.69
2022-09-16T11:15:42.275Z,18.37
2022-09-16T11:16:57.101Z,18.91
2022-09-16T11:18:08.668Z,18.74
2022-09-16T11:19:20.321Z,18.43
2022-09-16T11:20:38.671Z,18.66
2022-09-16T11:21:55.912Z,18.53
2022-09-16T11:22:59.886Z,18.68
2022-09-16T11:24:08.497Z,18.76
2022-09-16T11:25:23.690Z,19.07
2022-09-16T11:26:25.281Z,19.53
2022-09-16T11:27:40.904Z,19.70
2022-09-16T11:28:53.781Z,19.81
2022-09-16T11:29:57.808Z,20.10
2022-09-16T11:31:06.454Z,20.46
2022-09-16T11:32:05.714Z,20.41
2022-09-16T11:33:08.245Z,20.51
2022-09-16T11:34:20.953Z,20.53
2022-09-16T11:35:54.680Z,20.34
2022-09-16T11:36:54.475Z,20.79
2022-09-16T11:38:10.521Z,21.20
2022-09-16T11:39:43.757Z,21.36
2022-09-16T11:40:47.974Z,21.34
2022-09-16T11:42:03.089Z,21.69
2022-09-16T11:43:18.119Z,21.70
2022-09-16T11:44:43.441Z,21.41
2022-09-16T11:45:49.767Z,21.68
2022-09-16T11:47:31.260Z,21.02
2022-09-16T11:48:46.003Z,21.36
2022-09-16T11:50:09.492Z,21.78
2022-09-16T11:51:27.974Z,20.93
2022-09-16T11:52:49.374Z,21.20
2022-09-16T11:54:01.765Z,20.78
2022-09-16T11:55:06.666Z,20.78
2022-09-16T11:56:18.340Z,21.24
2022-09-16T11:57:28.997Z,21.72
2022-09-16T11:58:38.294Z,20.67
2022-09-16T11:59:41.197Z,21.09
2022-09-16T12:00:39.487Z,21.84
2022-09-16T12:01:52.326Z,22.16
2022-09-16T12:03:10.645Z,21.80
2022-09-16T12:04:28.935Z,21.47
2022-09-16T12:05:29.702Z,21.56
2022-09-16T12:06:32.081Z,21.83
2022-09-16T12:07:45.200Z,21.38
2022-09-16T12:09:00.315Z,22.11
2022-09-16T12:10:44.677Z,21.85
2022-09-16T12:11:50.359Z,22.21
2022-09-16T12:12:52.882Z,21.93
2022-09-16T12:14:05.120Z,22.43
2022-09-16T12:15:16.719Z,22.00
2022-09-16T12:16:38.973Z,22.36
2022-09-16T12:17:39.719Z,22.62
2022-09-16T12:18:43.052Z,22.25
2022-09-16T12:19:49.227Z,21.56
2022-09-16T12:20:51.705Z,21.41
2022-09-16T12:21:58.384Z,21.48
2022-09-16T12:23:09.705Z,21.49
2022-09-16T12:24:45.146Z,21.79
2022-09-16T12:25:48.003Z,21.67
2022-09-16T12:26:57.771Z,21.55
2022-09-16T12:28:01.804Z,21.61
2022-09-16T12:29:05.173Z,21.91
2022-09-16T12:30:20.755Z,21.73
2022-09-16T12:31:27.180Z,21.44
2022-09-16T12:32:53.433Z,21.51
2022-09-16T12:33:56.204Z,21.78
2022-09-16T12:35:01.472Z,21.16
2022-09-16T12:36:19.079Z,21.13
2022-09-16T12:37:36.957Z,21.60
2022-09-16T12:38:34.027Z,21.42
2022-09-16T12:39:30.642Z,21.14
2022-09-16T12:40:41.140Z,21.09
2022-09-16T12:42:04.954Z,21.04
2022-09-16T12:43:25.921Z,21.12
2022-09-16T12:45:00.079Z,20.95
2022-09-16T12:46:17.705Z,21.36
2022-09-16T12:47:36.116Z,21.73
2022-09-16T12:48:56.422Z,21.70
2022-09-16T12:50:15.700Z,21.80
2022-09-16T12:51:59.599Z,21.18
2022-09-16T12:53:24.185Z,21.38
2022-09-16T12:54:41.252Z,20.96
2022-09-16T12:56:14.907Z,20.77
2022-09-16T12:57:48.348Z,20.81
2022-09-16T12:59:33.138Z,20.21
2022-09-16T13:00:41.701Z,19.90
2022-09-16T13:01:59.655Z,20.35
2022-09-16T13:03:01.105Z,20.44
2022-09-16T13:04:03.110Z,20.52
2022-09-16T13:05:10.195Z,20.95
2022-09-16T13:06:25.777Z,20.82
2022-09-16T13:07:27.539Z,20.73
2022-09-16T13:08:27.923Z,20.86
2022-09-16T13:09:47.447Z,20.85
2022-09-16T13:10:56.034Z,20.58
2022-09-16T13:13:31.128Z,20.61
2022-09-16T13:14:32.178Z,20.72
2022-09-16T13:15:39.003Z,20.31
2022-09-16T13:16:37.199Z,20.19
2022-09-16T13:17:39.333Z,20.28
2022-09-16T13:18:43.832Z,20.46
2022-09-16T13:19:54.231Z,20.30
2022-09-16T13:20:57.631Z,20.33
2022-09-16T13:22:17.785Z,20.07
2022-09-16T13:23:27.031Z,20.07
2022-09-16T13:24:43.180Z,19.75
2022-09-16T13:25:55.069Z,19.94
2022-09-16T13:26:52.123Z,20.06
2022-09-16T13:27:58.491Z,19.96
2022-09-16T13:28:57.932Z,19.72
2022-09-16T13:30:11.321Z,19.33
2022-09-16T13:31:17.856Z,19.49
2022-09-16T13:32:57.933Z,19.56
2022-09-16T13:33:57.626Z,19.26
2022-09-16T13:35:01.877Z,19.02
2022-09-16T13:36:20.217Z,19.44
2022-09-16T13:37:23.989Z,19.47
2022-09-16T13:38:25.903Z,19.13
2022-09-16T13:39:34.177Z,19.12
2022-09-16T13:40:31.708Z,18.97
2022-09-16T13:41:34.337Z,18.88
2022-09-16T13:42:30.933Z,19.21
2022-09-16T13:43:42.455Z,19.68
2022-09-16T13:44:40.468Z,19.72
2022-09-16T13:45:43.123Z,19.91
2022-09-16T13:46:39.907Z,20.01
2022-09-16T13:47:40.363Z,20.23
2022-09-16T13:48:56.856Z,20.30